Back to Top

Language: 

My Weather Underground Personal Weather Station Historical Data with Graphs...

Delerius Weather Station Historical Data
 
Daily Summary for October 21, 2018 Units:  Metric    English   Both
« Previous Day
Next Day »
Daily Weekly Monthly Yearly Custom
  Current: High: Low: Average:
Temperature: 13.6 °C 17.7 °C 8.6 °C 12.6 °C
Dew Point: 10 °C 13.7 °C 7.6 °C 10.3 °C
Humidity: 79 % 96 % 75 % 87 %
Wind Speed: 14.5 km/h 20.9 km/h 0 km/h 6.9 km/h
Wind Gust: 24.1 km/h 40.2 km/h - -
Wind:WNW - - WNW
Pressure: 1026.6 hPa 1028 hPa 1024.3 hPa -
Precipitation: 0 mm      
Historical Graphs
 
 
Tabular Data for October 21, 2018
Time Temperature Dew Point Pressure Wind Wind Speed Wind Gust Humidity Rainfall Rate (Hourly) solar Conditions
00:04 11.2 °C 9.1 °C 1028 hPa Calm     87 % 0 mm 0.00 W/m2
00:09 11.1 °C 9.2 °C 1028 hPa Calm     88 % 0 mm 0.00 W/m2
00:14 10.9 °C 9 °C 1027.7 hPa Calm   3.2 km/h 88 % 0 mm 0.00 W/m2
00:19 10.8 °C 8.9 °C 1027.7 hPa WNW 3.2 km/h 9.7 km/h 88 % 0 mm 0.00 W/m2
00:24 10.8 °C 9.1 °C 1027.7 hPa WNW 4.8 km/h 9.7 km/h 89 % 0 mm 0.00 W/m2
00:29 10.8 °C 9.1 °C 1027.7 hPa WNW 8 km/h 12.9 km/h 89 % 0 mm 0.00 W/m2
00:34 10.9 °C 9.3 °C 1027.7 hPa WNW 8 km/h 12.9 km/h 90 % 0 mm 0.00 W/m2
00:39 11.1 °C 9.5 °C 1027.7 hPa WNW 6.4 km/h 11.3 km/h 90 % 0 mm 0.00 W/m2
00:44 11.1 °C 9.3 °C 1027.7 hPa WNW 8 km/h 12.9 km/h 89 % 0 mm 0.00 W/m2
00:49 11.2 °C 9.4 °C 1027.7 hPa WNW 4.8 km/h 9.7 km/h 89 % 0 mm 0.00 W/m2
00:54 11.2 °C 9.4 °C 1027.7 hPa WNW 3.2 km/h 6.4 km/h 89 % 0 mm 0.00 W/m2
00:59 11.2 °C 9.4 °C 1027.7 hPa Calm   3.2 km/h 89 % 0 mm 0.00 W/m2
01:04 11.1 °C 9.2 °C 1027.3 hPa Calm     88 % 0 mm 0.00 W/m2
01:09 10.9 °C 9 °C 1027.3 hPa Calm     88 % 0 mm 0.00 W/m2
01:14 10.8 °C 8.9 °C 1027.3 hPa Calm     88 % 0 mm 0.00 W/m2
01:19 10.6 °C 8.7 °C 1027.3 hPa Calm     88 % 0 mm 0.00 W/m2
01:24 10.5 °C 8.6 °C 1027.3 hPa Calm     88 % 0 mm 0.00 W/m2
01:29 10.3 °C 8.6 °C 1027.3 hPa Calm     89 % 0 mm 0.00 W/m2
01:34 10.2 °C 8.4 °C 1027.3 hPa Calm     89 % 0 mm 0.00 W/m2
01:39 10.1 °C 8.4 °C 1027.3 hPa Calm     89 % 0 mm 0.00 W/m2
01:44 10 °C 8.3 °C 1027.3 hPa Calm     89 % 0 mm 0.00 W/m2
01:49 9.9 °C 8.2 °C 1027.3 hPa Calm     89 % 0 mm 0.00 W/m2
01:54 9.8 °C 8.2 °C 1027 hPa Calm     90 % 0 mm 0.00 W/m2
01:59 9.7 °C 8.1 °C 1027 hPa Calm     90 % 0 mm 0.00 W/m2
02:04 9.6 °C 8.1 °C 1027 hPa Calm   3.2 km/h 90 % 0 mm 0.00 W/m2
02:09 9.6 °C 8.2 °C 1027 hPa Calm     91 % 0 mm 0.00 W/m2
02:14 9.5 °C 8.1 °C 1027 hPa Calm     91 % 0 mm 0.00 W/m2
02:19 9.5 °C 8.1 °C 1027 hPa Calm     91 % 0 mm 0.00 W/m2
02:24 9.5 °C 8.3 °C 1027 hPa Calm     92 % 0 mm 0.00 W/m2
02:29 9.5 °C 8.3 °C 1027 hPa Calm     92 % 0 mm 0.00 W/m2
02:34 9.4 °C 8.2 °C 1027 hPa Calm   3.2 km/h 92 % 0 mm 0.00 W/m2
02:39 9.3 °C 7.9 °C 1027 hPa WNW 1.6 km/h 3.2 km/h 91 % 0 mm 0.00 W/m2
02:44 9.2 °C 7.9 °C 1026.6 hPa WNW 1.6 km/h 4.8 km/h 92 % 0 mm 0.00 W/m2
02:49 9.2 °C 7.9 °C 1027 hPa WNW 1.6 km/h 3.2 km/h 92 % 0 mm 0.00 W/m2
02:54 9.2 °C 7.9 °C 1026.6 hPa WNW 1.6 km/h 4.8 km/h 92 % 0 mm 0.00 W/m2
02:59 9.1 °C 7.9 °C 1026.6 hPa WNW 3.2 km/h 6.4 km/h 92 % 0 mm 0.00 W/m2
03:04 9.1 °C 7.9 °C 1026.6 hPa Calm     92 % 0 mm 0.00 W/m2
03:09 9.1 °C 7.9 °C 1026.6 hPa Calm     92 % 0 mm 0.00 W/m2
03:14 9.1 °C 8 °C 1026.6 hPa Calm     93 % 0 mm 0.00 W/m2
03:19 9 °C 7.9 °C 1026.6 hPa Calm     93 % 0 mm 0.00 W/m2
03:24 8.9 °C 7.8 °C 1026.6 hPa Calm   1.6 km/h 93 % 0 mm 0.00 W/m2
03:29 8.9 °C 7.8 °C 1026.6 hPa Calm   1.6 km/h 93 % 0 mm 0.00 W/m2
03:34 8.9 °C 7.8 °C 1026.6 hPa Calm   1.6 km/h 93 % 0 mm 0.00 W/m2
03:39 8.9 °C 7.8 °C 1026.6 hPa WNW 1.6 km/h 3.2 km/h 93 % 0 mm 0.00 W/m2
03:44 8.8 °C 7.7 °C 1026.6 hPa Calm     93 % 0 mm 0.00 W/m2
03:49 8.9 °C 7.8 °C 1026.6 hPa Calm     93 % 0 mm 0.00 W/m2
03:54 8.9 °C 7.8 °C 1026.3 hPa Calm     93 % 0 mm 0.00 W/m2
03:59 8.9 °C 7.8 °C 1026.3 hPa Calm   1.6 km/h 93 % 0 mm 0.00 W/m2
04:04 8.9 °C 7.8 °C 1026.3 hPa Calm     93 % 0 mm 0.00 W/m2
04:09 8.8 °C 7.7 °C 1026.3 hPa Calm     93 % 0 mm 0.00 W/m2
04:14 8.8 °C 7.7 °C 1026.3 hPa Calm     93 % 0 mm 0.00 W/m2
04:19 8.7 °C 7.6 °C 1026.3 hPa Calm     93 % 0 mm 0.00 W/m2
04:24 8.7 °C 7.6 °C 1026.3 hPa Calm     93 % 0 mm 0.00 W/m2
04:29 8.6 °C 7.6 °C 1026.3 hPa Calm     93 % 0 mm 0.00 W/m2
04:34 8.6 °C 7.6 °C 1026 hPa Calm     93 % 0 mm 0.00 W/m2
04:39 8.7 °C 7.8 °C 1026 hPa Calm     94 % 0 mm 0.00 W/m2
04:44 8.7 °C 7.8 °C 1026 hPa Calm     94 % 0 mm 0.00 W/m2
04:49 8.7 °C 7.8 °C 1026 hPa Calm     94 % 0 mm 0.00 W/m2
04:54 8.8 °C 7.9 °C 1026 hPa Calm     94 % 0 mm 0.00 W/m2
04:59 8.8 °C 7.9 °C 1026 hPa Calm     94 % 0 mm 0.00 W/m2
05:04 8.8 °C 7.9 °C 1026 hPa Calm     94 % 0 mm 0.00 W/m2
05:09 8.9 °C 8.2 °C 1026 hPa Calm     95 % 0 mm 0.00 W/m2
05:14 9 °C 8.2 °C 1026 hPa Calm     95 % 0 mm 0.00 W/m2
05:19 9.1 °C 8.3 °C 1026 hPa Calm     95 % 0 mm 0.00 W/m2
05:24 9.1 °C 8.2 °C 1026 hPa Calm     94 % 0 mm 0.00 W/m2
05:29 9.2 °C 8.4 °C 1026 hPa Calm     95 % 0 mm 0.00 W/m2
05:34 9.3 °C 8.6 °C 1026 hPa Calm     95 % 0 mm 0.00 W/m2
05:39 9.3 °C 8.6 °C 1026 hPa Calm   3.2 km/h 95 % 0 mm 0.00 W/m2
05:44 9.3 °C 8.4 °C 1025.6 hPa Calm     94 % 0 mm 0.00 W/m2
05:49 9.3 °C 8.4 °C 1025.6 hPa Calm     94 % 0 mm 0.00 W/m2
05:54 9.3 °C 8.4 °C 1025.6 hPa Calm     94 % 0 mm 0.00 W/m2
05:59 9.3 °C 8.6 °C 1025.6 hPa Calm     95 % 0 mm 0.00 W/m2
06:04 9.5 °C 8.7 °C 1025.6 hPa Calm     95 % 0 mm 0.00 W/m2
06:09 9.6 °C 8.8 °C 1025.6 hPa Calm     95 % 0 mm 0.00 W/m2
06:14 9.7 °C 8.9 °C 1025.6 hPa Calm     95 % 0 mm 0.00 W/m2
06:19 9.8 °C 9.1 °C 1025.6 hPa Calm     95 % 0 mm 0.00 W/m2
06:24 9.9 °C 9.1 °C 1025.3 hPa Calm     95 % 0 mm 0.00 W/m2
06:29 9.9 °C 9.1 °C 1025.6 hPa Calm     95 % 0 mm 0.00 W/m2
06:34 10 °C 9.2 °C 1025.6 hPa Calm     95 % 0 mm 0.00 W/m2
06:39 10 °C 9.2 °C 1025.6 hPa Calm   3.2 km/h 95 % 0 mm 0.00 W/m2
06:44 9.9 °C 9 °C 1025.6 hPa WNW 4.8 km/h 6.4 km/h 94 % 0 mm 0.00 W/m2
06:49 9.9 °C 9 °C 1025.3 hPa WNW 3.2 km/h 6.4 km/h 94 % 0 mm 0.00 W/m2
06:54 9.9 °C 9 °C 1025.3 hPa Calm     94 % 0 mm 0.00 W/m2
06:59 9.8 °C 9.1 °C 1025.3 hPa Calm   3.2 km/h 95 % 0 mm 0.00 W/m2
07:04 9.8 °C 8.9 °C 1025.3 hPa Calm     94 % 0 mm 0.00 W/m2
07:09 9.6 °C 8.7 °C 1025.3 hPa Calm     94 % 0 mm 0.00 W/m2
07:14 9.4 °C 8.5 °C 1024.9 hPa Calm     94 % 0 mm 0.00 W/m2
07:19 9.3 °C 8.4 °C 1025.3 hPa Calm     94 % 0 mm 0.00 W/m2
07:24 9.2 °C 8.3 °C 1025.3 hPa Calm     94 % 0 mm 0.00 W/m2
07:29 9.1 °C 8.2 °C 1025.3 hPa Calm     94 % 0 mm 0.00 W/m2
07:34 9 °C 8.1 °C 1025.3 hPa Calm     94 % 0 mm 0.00 W/m2
07:39 8.9 °C 8 °C 1024.9 hPa Calm     94 % 0 mm 0.00 W/m2
07:44 8.8 °C 7.9 °C 1024.9 hPa Calm     94 % 0 mm 5.00 W/m2
07:49 8.8 °C 7.9 °C 1024.9 hPa Calm     94 % 0 mm 7.00 W/m2
07:54 8.8 °C 7.9 °C 1025.3 hPa Calm   3.2 km/h 94 % 0 mm 9.00 W/m2
07:59 8.7 °C 7.8 °C 1025.3 hPa Calm     94 % 0 mm 9.00 W/m2
08:04 8.7 °C 7.8 °C 1025.3 hPa Calm     94 % 0 mm 11.00 W/m2
08:09 8.6 °C 7.7 °C 1025.3 hPa Calm     94 % 0 mm 16.00 W/m2
08:14 8.7 °C 7.9 °C 1025.3 hPa Calm   3.2 km/h 95 % 0 mm 18.00 W/m2
08:19 8.8 °C 8.1 °C 1025.3 hPa Calm     95 % 0 mm 18.00 W/m2
08:24 9 °C 8.2 °C 1025.3 hPa Calm     95 % 0 mm 28.00 W/m2
08:29 9.2 °C 8.4 °C 1025.3 hPa WNW 1.6 km/h 6.4 km/h 95 % 0 mm 42.00 W/m2
08:34 9.5 °C 8.9 °C 1025.3 hPa West 6.4 km/h 14.5 km/h 96 % 0 mm 60.00 W/m2
08:39 9.7 °C 9.1 °C 1025.3 hPa West 3.2 km/h 6.4 km/h 96 % 0 mm 74.00 W/m2
08:44 9.9 °C 9.3 °C 1025.3 hPa WNW 11.3 km/h 17.7 km/h 96 % 0 mm 91.00 W/m2
08:49 10.6 °C 10 °C 1025.3 hPa WNW 9.7 km/h 16.1 km/h 96 % 0 mm 105.00 W/m2
08:54 11.1 °C 10.5 °C 1025.3 hPa WNW 12.9 km/h 25.7 km/h 96 % 0 mm 123.00 W/m2
08:59 11.4 °C 10.6 °C 1025.3 hPa NW 12.9 km/h 19.3 km/h 95 % 0 mm 139.00 W/m2
09:04 11.7 °C 10.8 °C 1025.3 hPa NW 14.5 km/h 24.1 km/h 94 % 0 mm 155.00 W/m2
09:09 11.9 °C 10.8 °C 1025.3 hPa NW 12.9 km/h 19.3 km/h 93 % 0 mm 165.00 W/m2
09:14 12.1 °C 10.8 °C 1025.3 hPa NW 12.9 km/h 20.9 km/h 92 % 0 mm 181.00 W/m2
09:19 12.3 °C 10.9 °C 1025.3 hPa WNW 11.3 km/h 16.1 km/h 91 % 0 mm 204.00 W/m2
09:24 12.6 °C 11.2 °C 1025.3 hPa WNW 12.9 km/h 16.1 km/h 91 % 0 mm 199.00 W/m2
09:29 12.7 °C 11.1 °C 1025.3 hPa WNW 11.3 km/h 19.3 km/h 90 % 0 mm 193.00 W/m2
09:34 12.9 °C 11.3 °C 1025.3 hPa WNW 9.7 km/h 16.1 km/h 90 % 0 mm 199.00 W/m2
09:39 13.1 °C 11.3 °C 1025.3 hPa WNW 6.4 km/h 11.3 km/h 89 % 0 mm 225.00 W/m2
09:44 13.2 °C 11.4 °C 1024.9 hPa WNW 9.7 km/h 14.5 km/h 89 % 0 mm 234.00 W/m2
09:49 13.3 °C 11.3 °C 1024.9 hPa WNW 8 km/h 12.9 km/h 88 % 0 mm 246.00 W/m2
09:54 13.6 °C 11.7 °C 1024.9 hPa West 6.4 km/h 9.7 km/h 88 % 0 mm 251.00 W/m2
09:59 13.8 °C 11.7 °C 1025.3 hPa WNW 9.7 km/h 17.7 km/h 87 % 0 mm 213.00 W/m2
10:04 14 °C 11.9 °C 1024.9 hPa WNW 9.7 km/h 19.3 km/h 87 % 0 mm 267.00 W/m2
10:09 14.1 °C 11.8 °C 1024.9 hPa WNW 9.7 km/h 16.1 km/h 86 % 0 mm 287.00 W/m2
10:14 14.3 °C 12 °C 1024.9 hPa WNW 12.9 km/h 17.7 km/h 86 % 0 mm 297.00 W/m2
10:19 14.5 °C 12 °C 1024.9 hPa WNW 12.9 km/h 19.3 km/h 85 % 0 mm 297.00 W/m2
10:24 14.7 °C 12 °C 1024.9 hPa WNW 11.3 km/h 20.9 km/h 84 % 0 mm 316.00 W/m2
10:29 14.8 °C 12.1 °C 1024.9 hPa WNW 14.5 km/h 20.9 km/h 84 % 0 mm 327.00 W/m2
10:34 15 °C 12.1 °C 1024.9 hPa West 12.9 km/h 19.3 km/h 83 % 0 mm 341.00 W/m2
10:39 15.1 °C 12.2 °C 1024.9 hPa WNW 12.9 km/h 19.3 km/h 83 % 0 mm 348.00 W/m2
10:44 15.2 °C 12.3 °C 1024.9 hPa West 12.9 km/h 19.3 km/h 83 % 0 mm 359.00 W/m2
10:49 15.3 °C 12.2 °C 1024.9 hPa West 12.9 km/h 17.7 km/h 82 % 0 mm 364.00 W/m2
10:54 15.4 °C 12.3 °C 1024.9 hPa West 16.1 km/h 29 km/h 82 % 0 mm 371.00 W/m2
10:59 15.5 °C 12.3 °C 1024.9 hPa West 17.7 km/h 24.1 km/h 81 % 0 mm 374.00 W/m2
11:04 15.6 °C 12.3 °C 1024.9 hPa West 11.3 km/h 17.7 km/h 81 % 0 mm 381.00 W/m2
11:09 15.7 °C 12.4 °C 1024.6 hPa West 9.7 km/h 16.1 km/h 81 % 0 mm 388.00 W/m2
11:14 15.9 °C 12.4 °C 1024.6 hPa WNW 9.7 km/h 12.9 km/h 80 % 0 mm 396.00 W/m2
11:19 16.2 °C 12.7 °C 1024.6 hPa WNW 8 km/h 11.3 km/h 80 % 0 mm 399.00 W/m2
11:24 16.4 °C 12.7 °C 1024.6 hPa NW 4.8 km/h 9.7 km/h 79 % 0 mm 406.00 W/m2
11:29 16.8 °C 12.9 °C 1024.6 hPa West 4.8 km/h 9.7 km/h 78 % 0 mm 418.00 W/m2
11:34 17 °C 12.9 °C 1024.6 hPa WNW 6.4 km/h 14.5 km/h 77 % 0 mm 454.00 W/m2
11:39 17.3 °C 13.2 °C 1024.6 hPa WNW 9.7 km/h 16.1 km/h 77 % 0 mm 515.00 W/m2
11:44 17.4 °C 12.9 °C 1024.6 hPa West 9.7 km/h 12.9 km/h 75 % 0 mm 132.00 W/m2
11:49 17.4 °C 12.9 °C 1024.6 hPa West 8 km/h 12.9 km/h 75 % 0 mm 144.00 W/m2
11:54 17.4 °C 13.1 °C 1024.3 hPa WNW 8 km/h 14.5 km/h 76 % 0 mm 183.00 W/m2
11:59 17.5 °C 13.2 °C 1024.3 hPa WSW 9.7 km/h 12.9 km/h 76 % 0 mm 334.00 W/m2
12:04 17.6 °C 13.3 °C 1024.3 hPa WNW 6.4 km/h 12.9 km/h 76 % 0 mm 216.00 W/m2
12:09 17.7 °C 13.4 °C 1024.3 hPa WNW 11.3 km/h 17.7 km/h 76 % 0 mm 176.00 W/m2
12:14 17.7 °C 13.4 °C 1024.6 hPa WNW 11.3 km/h 17.7 km/h 76 % 0 mm 183.00 W/m2
12:19 17.6 °C 13.3 °C 1024.6 hPa WNW 12.9 km/h 19.3 km/h 76 % 0 mm 304.00 W/m2
12:24 17.4 °C 13.1 °C 1024.6 hPa West 14.5 km/h 22.5 km/h 76 % 0 mm 362.00 W/m2
12:29 17.4 °C 13.1 °C 1024.3 hPa West 14.5 km/h 20.9 km/h 76 % 0 mm 225.00 W/m2
12:34 17.3 °C 13 °C 1024.6 hPa WNW 17.7 km/h 24.1 km/h 76 % 0 mm 253.00 W/m2
12:39 17.2 °C 12.9 °C 1024.6 hPa WNW 12.9 km/h 22.5 km/h 76 % 0 mm 216.00 W/m2
12:44 17.2 °C 12.9 °C 1024.6 hPa WNW 14.5 km/h 19.3 km/h 76 % 0 mm 193.00 W/m2
12:49 17.1 °C 13.1 °C 1024.6 hPa West 14.5 km/h 20.9 km/h 77 % 0 mm 172.00 W/m2
12:54 17 °C 12.9 °C 1024.6 hPa WNW 11.3 km/h 19.3 km/h 77 % 0 mm 156.00 W/m2
12:59 16.9 °C 12.8 °C 1024.3 hPa WNW 11.3 km/h 16.1 km/h 77 % 0 mm 151.00 W/m2
13:04 16.8 °C 12.9 °C 1024.3 hPa West 9.7 km/h 14.5 km/h 78 % 0 mm 192.00 W/m2
13:09 16.8 °C 12.9 °C 1024.6 hPa West 9.7 km/h 19.3 km/h 78 % 0 mm 183.00 W/m2
13:14 16.7 °C 13.1 °C 1024.3 hPa WNW 14.5 km/h 20.9 km/h 79 % 0 mm 160.00 W/m2
13:19 16.7 °C 13.1 °C 1024.3 hPa West 12.9 km/h 20.9 km/h 79 % 0 mm 135.00 W/m2
13:24 16.7 °C 13.1 °C 1024.3 hPa WNW 16.1 km/h 24.1 km/h 79 % 0 mm 146.00 W/m2
13:29 16.6 °C 13.1 °C 1024.3 hPa West 14.5 km/h 22.5 km/h 80 % 0 mm 227.00 W/m2
13:34 16.8 °C 13.5 °C 1024.6 hPa West 14.5 km/h 25.7 km/h 81 % 0 mm 190.00 W/m2
13:39 16.8 °C 13.3 °C 1024.6 hPa West 19.3 km/h 32.2 km/h 80 % 0 mm 202.00 W/m2
13:44 16.8 °C 13.3 °C 1024.6 hPa WNW 12.9 km/h 20.9 km/h 80 % 0 mm 127.00 W/m2
13:49 16.8 °C 13.3 °C 1024.6 hPa West 12.9 km/h 20.9 km/h 80 % 0 mm 151.00 W/m2
13:54 16.8 °C 13.3 °C 1024.6 hPa West 8 km/h 16.1 km/h 80 % 0 mm 148.00 W/m2
13:59 16.9 °C 13.6 °C 1024.6 hPa WNW 14.5 km/h 30.6 km/h 81 % 0 mm 221.00 W/m2
14:04 17 °C 13.5 °C 1024.6 hPa WNW 16.1 km/h 29 km/h 80 % 0 mm 151.00 W/m2
14:09 17 °C 13.5 °C 1024.6 hPa West 16.1 km/h 24.1 km/h 80 % 0 mm 457.00 W/m2
14:14 17.2 °C 13.7 °C 1024.9 hPa West 17.7 km/h 29 km/h 80 % 0 mm 445.00 W/m2
14:19 17.3 °C 13.6 °C 1024.9 hPa West 16.1 km/h 29 km/h 79 % 0 mm 399.00 W/m2
14:24 17.2 °C 13.3 °C 1024.9 hPa West 17.7 km/h 24.1 km/h 78 % 0 mm 141.00 W/m2
14:29 17.1 °C 13.4 °C 1024.9 hPa West 16.1 km/h 30.6 km/h 79 % 0 mm 206.00 W/m2
14:34 17 °C 13.3 °C 1024.9 hPa WNW 14.5 km/h 22.5 km/h 79 % 0 mm 163.00 W/m2
14:39 16.9 °C 13.2 °C 1024.6 hPa WNW 14.5 km/h 19.3 km/h 79 % 0 mm 148.00 W/m2
14:44 16.9 °C 13.2 °C 1024.6 hPa West 14.5 km/h 22.5 km/h 79 % 0 mm 127.00 W/m2
14:49 17 °C 13.5 °C 1024.9 hPa WNW 17.7 km/h 25.7 km/h 80 % 0 mm 418.00 W/m2
14:54 17.2 °C 13.5 °C 1024.9 hPa West 12.9 km/h 22.5 km/h 79 % 0 mm 441.00 W/m2
14:59 17.3 °C 13.4 °C 1024.9 hPa WNW 16.1 km/h 22.5 km/h 78 % 0 mm 132.00 W/m2
15:04 17.1 °C 13.2 °C 1024.9 hPa West 20.9 km/h 33.8 km/h 78 % 0 mm 146.00 W/m2
15:09 16.9 °C 13.2 °C 1024.9 hPa West 16.1 km/h 33.8 km/h 79 % 0 mm 104.00 W/m2
15:14 16.6 °C 13.1 °C 1024.9 hPa West 19.3 km/h 32.2 km/h 80 % 0 mm 84.00 W/m2
15:19 16.4 °C 13.1 °C 1024.9 hPa West 16.1 km/h 25.7 km/h 81 % 0 mm 54.00 W/m2
15:24 16.2 °C 13.1 °C 1024.9 hPa West 12.9 km/h 19.3 km/h 82 % 0 mm 40.00 W/m2
15:29 16.1 °C 13 °C 1024.9 hPa WNW 17.7 km/h 25.7 km/h 82 % 0 mm 32.00 W/m2
15:34 15.9 °C 12.8 °C 1024.9 hPa WNW 20.9 km/h 40.2 km/h 82 % 0 mm 30.00 W/m2
15:39 15.8 °C 12.9 °C 1025.3 hPa NW 12.9 km/h 29 km/h 83 % 0 mm 39.00 W/m2
15:44 15.6 °C 12.7 °C 1025.3 hPa WNW 17.7 km/h 32.2 km/h 83 % 0 mm 19.00 W/m2
15:49 15.4 °C 12.5 °C 1025.3 hPa WNW 20.9 km/h 37 km/h 83 % 0 mm 35.00 W/m2
15:54 15.1 °C 12.2 °C 1025.3 hPa WNW 12.9 km/h 20.9 km/h 83 % 0 mm 77.00 W/m2
15:59 14.9 °C 12.1 °C 1025.3 hPa WNW 11.3 km/h 17.7 km/h 83 % 0 mm 67.00 W/m2
16:04 14.8 °C 11.8 °C 1025.3 hPa WNW 14.5 km/h 20.9 km/h 82 % 0 mm 60.00 W/m2
16:09 14.7 °C 11.7 °C 1025.3 hPa WNW 9.7 km/h 17.7 km/h 82 % 0 mm 56.00 W/m2
16:14 14.7 °C 11.4 °C 1025.3 hPa WNW 11.3 km/h 17.7 km/h 81 % 0 mm 77.00 W/m2
16:19 14.6 °C 11.4 °C 1025.3 hPa WNW 16.1 km/h 25.7 km/h 81 % 0 mm 65.00 W/m2
16:24 14.6 °C 11.4 °C 1025.6 hPa WNW 17.7 km/h 30.6 km/h 81 % 0 mm 83.00 W/m2
16:29 14.6 °C 11.4 °C 1025.6 hPa WNW 16.1 km/h 33.8 km/h 81 % 0 mm 86.00 W/m2
16:34 14.6 °C 11.4 °C 1025.6 hPa WNW 17.7 km/h 25.7 km/h 81 % 0 mm 76.00 W/m2
16:39 14.6 °C 11.2 °C 1025.6 hPa WNW 14.5 km/h 22.5 km/h 80 % 0 mm 60.00 W/m2
16:44 14.5 °C 10.9 °C 1025.6 hPa WNW 16.1 km/h 24.1 km/h 79 % 0 mm 49.00 W/m2
16:49 14.4 °C 11 °C 1025.6 hPa WNW 11.3 km/h 16.1 km/h 80 % 0 mm 79.00 W/m2
16:54 14.4 °C 11 °C 1026 hPa WNW 11.3 km/h 19.3 km/h 80 % 0 mm 65.00 W/m2
16:59 14.4 °C 11 °C 1026 hPa WNW 9.7 km/h 30.6 km/h 80 % 0 mm 53.00 W/m2
17:04 14.4 °C 10.8 °C 1026 hPa WNW 11.3 km/h 19.3 km/h 79 % 0 mm 44.00 W/m2
17:09 14.3 °C 10.9 °C 1026.3 hPa NW 8 km/h 14.5 km/h 80 % 0 mm 58.00 W/m2
17:14 14.3 °C 10.9 °C 1026.3 hPa WNW 11.3 km/h 22.5 km/h 80 % 0 mm 26.00 W/m2
17:19 14.2 °C 10.6 °C 1026.3 hPa WNW 11.3 km/h 16.1 km/h 79 % 0 mm 32.00 W/m2
17:24 14.1 °C 10.5 °C 1026.3 hPa WNW 14.5 km/h 20.9 km/h 79 % 0 mm 26.00 W/m2
17:29 13.9 °C 10.3 °C 1026.3 hPa NW 11.3 km/h 16.1 km/h 79 % 0 mm 23.00 W/m2
17:34 13.8 °C 10.2 °C 1026.6 hPa WNW 14.5 km/h 22.5 km/h 79 % 0 mm 18.00 W/m2
17:39 13.6 °C 10 °C 1026.6 hPa WNW 14.5 km/h 24.1 km/h 79 % 0 mm 16.00 W/m2
Delerius-Weather
Compliments of Weather Underground - 1.75 mb

Data updates at regular intervals.